CheckWX is a tool to help pilots better visualize weather data.  It is not intended as a substitute for an official pre-flight weather briefing.

23:28:37 UTC

VTCN METAR
Nan Airport
Thailand
Current

29 mins ago

VTCN 242300Z 02003KT 350V120 8000 NSC 28/24 Q1009 NOSIG
Observed
May-24 @ 23:00 UTC
Wind
  • 020° at 3 KTS
Visibility
7998 meters
Flight Rules
MVFR
Cloud Levels
  • Clear skies
Temperature
28°C / 82°F
Dewpoint
24°C / 75°F
Humidity
79%
Altimeter
29.79" Hg
Pressure
1008.92 hPa
Previous

12 hours ago

VTCN 241100Z 24005KT 9999 FEW030 36/19 Q1004 NOSIG
Observed
May-24 @ 11:00 UTC
Wind
  • 240° at 5 KTS
Visibility
10,000+ meters
Flight Rules
VFR
Cloud Levels
  • Few at 3,000' AGL
Temperature
36°C / 97°F
Dewpoint
19°C / 66°F
Humidity
37%
Altimeter
29.65" Hg
Pressure
1003.92 hPa
Previous

13 hours ago

VTCN 241000Z 24005KT 180V300 9999 FEW030 37/22 Q1003 NOSIG
Observed
May-24 @ 10:00 UTC
Wind
  • 240° at 5 KTS
Visibility
10,000+ meters
Flight Rules
VFR
Cloud Levels
  • Few at 3,000' AGL
Temperature
37°C / 99°F
Dewpoint
22°C / 72°F
Humidity
42%
Altimeter
29.62" Hg
Pressure
1002.92 hPa